sensor_id;sensor_type;location;lat;lon;timestamp;P1;durP1;ratioP1;P2;durP2;ratioP2
61188;SDS011;47054;39.716;2.904;2022-10-23T00:02:10;18.88;;;6.03;;
61188;SDS011;47054;39.716;2.904;2022-10-23T00:04:56;16.00;;;5.95;;
61188;SDS011;47054;39.716;2.904;2022-10-23T00:07:40;17.08;;;5.30;;
61188;SDS011;47054;39.716;2.904;2022-10-23T00:10:25;20.02;;;6.07;;
61188;SDS011;47054;39.716;2.904;2022-10-23T00:13:11;14.73;;;5.55;;
61188;SDS011;47054;39.716;2.904;2022-10-23T00:15:55;23.70;;;5.90;;
61188;SDS011;47054;39.716;2.904;2022-10-23T00:18:40;18.30;;;5.50;;
61188;SDS011;47054;39.716;2.904;2022-10-23T00:21:25;19.20;;;6.45;;
61188;SDS011;47054;39.716;2.904;2022-10-23T00:24:11;15.68;;;6.13;;
61188;SDS011;47054;39.716;2.904;2022-10-23T00:26:55;23.40;;;5.97;;
61188;SDS011;47054;39.716;2.904;2022-10-23T00:29:40;18.27;;;5.70;;
61188;SDS011;47054;39.716;2.904;2022-10-23T00:32:24;14.20;;;5.70;;
61188;SDS011;47054;39.716;2.904;2022-10-23T00:35:10;15.95;;;5.63;;
61188;SDS011;47054;39.716;2.904;2022-10-23T00:37:56;20.25;;;6.05;;
61188;SDS011;47054;39.716;2.904;2022-10-23T00:40:40;18.98;;;5.88;;
61188;SDS011;47054;39.716;2.904;2022-10-23T00:43:28;16.85;;;5.45;;
61188;SDS011;47054;39.716;2.904;2022-10-23T00:46:14;19.42;;;5.57;;
61188;SDS011;47054;39.716;2.904;2022-10-23T00:48:59;16.23;;;5.85;;
61188;SDS011;47054;39.716;2.904;2022-10-23T00:51:46;24.88;;;5.85;;
61188;SDS011;47054;39.716;2.904;2022-10-23T00:54:40;19.85;;;5.95;;
61188;SDS011;47054;39.716;2.904;2022-10-23T00:57:26;21.85;;;5.63;;
61188;SDS011;47054;39.716;2.904;2022-10-23T01:00:16;18.42;;;5.93;;
61188;SDS011;47054;39.716;2.904;2022-10-23T01:03:06;14.30;;;5.20;;
61188;SDS011;47054;39.716;2.904;2022-10-23T01:05:52;18.77;;;5.90;;
61188;SDS011;47054;39.716;2.904;2022-10-23T01:30:11;20.40;;;5.60;;
61188;SDS011;47054;39.716;2.904;2022-10-23T01:35:49;17.70;;;5.32;;
61188;SDS011;47054;39.716;2.904;2022-10-23T01:42:40;21.00;;;5.40;;
61188;SDS011;47054;39.716;2.904;2022-10-23T01:45:18;20.73;;;5.38;;
61188;SDS011;47054;39.716;2.904;2022-10-23T01:48:11;22.00;;;5.40;;
61188;SDS011;47054;39.716;2.904;2022-10-23T01:50:59;17.77;;;5.35;;
61188;SDS011;47054;39.716;2.904;2022-10-23T01:53:47;15.38;;;5.47;;
61188;SDS011;47054;39.716;2.904;2022-10-23T01:56:34;16.42;;;5.43;;
61188;SDS011;47054;39.716;2.904;2022-10-23T01:59:33;24.40;;;5.70;;
61188;SDS011;47054;39.716;2.904;2022-10-23T02:02:23;17.77;;;5.35;;
61188;SDS011;47054;39.716;2.904;2022-10-23T02:05:11;19.75;;;5.75;;
61188;SDS011;47054;39.716;2.904;2022-10-23T02:08:00;24.30;;;5.75;;
61188;SDS011;47054;39.716;2.904;2022-10-23T02:10:50;20.48;;;5.53;;
61188;SDS011;47054;39.716;2.904;2022-10-23T02:16:55;16.45;;;5.22;;
61188;SDS011;47054;39.716;2.904;2022-10-23T02:19:52;14.15;;;5.13;;
61188;SDS011;47054;39.716;2.904;2022-10-23T02:22:41;20.42;;;5.25;;
61188;SDS011;47054;39.716;2.904;2022-10-23T02:25:34;15.93;;;5.18;;
61188;SDS011;47054;39.716;2.904;2022-10-23T02:28:29;17.30;;;4.87;;
61188;SDS011;47054;39.716;2.904;2022-10-23T02:31:23;11.43;;;5.25;;
61188;SDS011;47054;39.716;2.904;2022-10-23T02:34:08;16.02;;;5.70;;
61188;SDS011;47054;39.716;2.904;2022-10-23T02:36:52;20.15;;;6.10;;
61188;SDS011;47054;39.716;2.904;2022-10-23T02:39:38;17.05;;;5.13;;
61188;SDS011;47054;39.716;2.904;2022-10-23T02:42:32;22.55;;;6.13;;
61188;SDS011;47054;39.716;2.904;2022-10-23T02:45:27;15.25;;;5.10;;
61188;SDS011;47054;39.716;2.904;2022-10-23T02:48:16;14.77;;;5.38;;
61188;SDS011;47054;39.716;2.904;2022-10-23T02:51:10;22.08;;;6.15;;
61188;SDS011;47054;39.716;2.904;2022-10-23T02:57:05;13.98;;;4.80;;
61188;SDS011;47054;39.716;2.904;2022-10-23T03:00:03;12.77;;;4.60;;
61188;SDS011;47054;39.716;2.904;2022-10-23T03:05:47;19.15;;;4.55;;
61188;SDS011;47054;39.716;2.904;2022-10-23T03:08:42;16.10;;;4.03;;
61188;SDS011;47054;39.716;2.904;2022-10-23T03:11:28;16.63;;;4.40;;
61188;SDS011;47054;39.716;2.904;2022-10-23T03:14:13;16.77;;;4.80;;
61188;SDS011;47054;39.716;2.904;2022-10-23T03:16:57;12.90;;;4.60;;
61188;SDS011;47054;39.716;2.904;2022-10-23T03:19:43;15.07;;;4.45;;
61188;SDS011;47054;39.716;2.904;2022-10-23T03:22:27;13.90;;;4.35;;
61188;SDS011;47054;39.716;2.904;2022-10-23T03:25:13;14.55;;;3.65;;
61188;SDS011;47054;39.716;2.904;2022-10-23T03:27:57;13.93;;;3.95;;
61188;SDS011;47054;39.716;2.904;2022-10-23T03:30:43;20.25;;;4.32;;
61188;SDS011;47054;39.716;2.904;2022-10-23T03:33:29;16.10;;;3.90;;
61188;SDS011;47054;39.716;2.904;2022-10-23T03:36:21;14.52;;;3.78;;
61188;SDS011;47054;39.716;2.904;2022-10-23T03:39:06;13.38;;;4.13;;
61188;SDS011;47054;39.716;2.904;2022-10-23T03:41:50;12.90;;;3.70;;
61188;SDS011;47054;39.716;2.904;2022-10-23T03:44:35;11.88;;;3.72;;
61188;SDS011;47054;39.716;2.904;2022-10-23T03:47:20;15.82;;;3.47;;
61188;SDS011;47054;39.716;2.904;2022-10-23T03:50:08;13.27;;;3.50;;
61188;SDS011;47054;39.716;2.904;2022-10-23T03:52:53;15.75;;;3.97;;
61188;SDS011;47054;39.716;2.904;2022-10-23T03:55:37;15.07;;;3.40;;
61188;SDS011;47054;39.716;2.904;2022-10-23T03:58:22;14.70;;;3.95;;
61188;SDS011;47054;39.716;2.904;2022-10-23T04:01:07;15.23;;;3.53;;
61188;SDS011;47054;39.716;2.904;2022-10-23T04:03:53;10.57;;;3.58;;
61188;SDS011;47054;39.716;2.904;2022-10-23T04:06:38;16.65;;;3.13;;
61188;SDS011;47054;39.716;2.904;2022-10-23T04:09:24;23.00;;;3.40;;
61188;SDS011;47054;39.716;2.904;2022-10-23T04:12:09;23.10;;;3.38;;
61188;SDS011;47054;39.716;2.904;2022-10-23T04:14:53;16.45;;;3.75;;
61188;SDS011;47054;39.716;2.904;2022-10-23T04:17:39;13.13;;;3.40;;
61188;SDS011;47054;39.716;2.904;2022-10-23T04:20:23;16.60;;;3.78;;
61188;SDS011;47054;39.716;2.904;2022-10-23T04:23:08;11.32;;;3.15;;
61188;SDS011;47054;39.716;2.904;2022-10-23T04:25:54;13.95;;;3.20;;
61188;SDS011;47054;39.716;2.904;2022-10-23T04:28:42;13.10;;;3.17;;
61188;SDS011;47054;39.716;2.904;2022-10-23T04:31:27;19.10;;;3.78;;
61188;SDS011;47054;39.716;2.904;2022-10-23T04:34:13;18.10;;;3.38;;
61188;SDS011;47054;39.716;2.904;2022-10-23T04:36:57;13.98;;;3.08;;
61188;SDS011;47054;39.716;2.904;2022-10-23T04:39:41;16.35;;;3.30;;
61188;SDS011;47054;39.716;2.904;2022-10-23T04:42:30;13.95;;;3.40;;
61188;SDS011;47054;39.716;2.904;2022-10-23T04:45:18;14.30;;;3.17;;
61188;SDS011;47054;39.716;2.904;2022-10-23T04:48:04;10.30;;;3.47;;
61188;SDS011;47054;39.716;2.904;2022-10-23T04:51:05;12.30;;;2.95;;
61188;SDS011;47054;39.716;2.904;2022-10-23T04:54:11;11.43;;;3.55;;
61188;SDS011;47054;39.716;2.904;2022-10-23T04:57:03;16.75;;;3.22;;
61188;SDS011;47054;39.716;2.904;2022-10-23T05:00:19;10.15;;;2.42;;
61188;SDS011;47054;39.716;2.904;2022-10-23T05:03:08;11.80;;;3.20;;
61188;SDS011;47054;39.716;2.904;2022-10-23T05:05:56;15.23;;;2.80;;
61188;SDS011;47054;39.716;2.904;2022-10-23T05:09:00;12.95;;;3.58;;
61188;SDS011;47054;39.716;2.904;2022-10-23T05:12:08;12.23;;;2.78;;
61188;SDS011;47054;39.716;2.904;2022-10-23T05:14:53;12.65;;;3.30;;
61188;SDS011;47054;39.716;2.904;2022-10-23T05:17:38;12.02;;;3.03;;
61188;SDS011;47054;39.716;2.904;2022-10-23T05:20:26;15.93;;;2.58;;
61188;SDS011;47054;39.716;2.904;2022-10-23T05:23:14;12.10;;;2.90;;
61188;SDS011;47054;39.716;2.904;2022-10-23T05:26:10;12.35;;;2.78;;
61188;SDS011;47054;39.716;2.904;2022-10-23T05:28:56;15.57;;;3.58;;
61188;SDS011;47054;39.716;2.904;2022-10-23T05:31:41;15.77;;;2.97;;
61188;SDS011;47054;39.716;2.904;2022-10-23T05:34:29;9.85;;;2.60;;
61188;SDS011;47054;39.716;2.904;2022-10-23T05:37:18;17.95;;;3.10;;
61188;SDS011;47054;39.716;2.904;2022-10-23T05:40:03;16.83;;;2.97;;
61188;SDS011;47054;39.716;2.904;2022-10-23T05:42:50;11.35;;;3.45;;
61188;SDS011;47054;39.716;2.904;2022-10-23T05:45:38;16.90;;;3.55;;
61188;SDS011;47054;39.716;2.904;2022-10-23T05:48:48;19.45;;;4.00;;
61188;SDS011;47054;39.716;2.904;2022-10-23T05:51:56;21.02;;;4.13;;
61188;SDS011;47054;39.716;2.904;2022-10-23T05:54:52;18.77;;;4.50;;
61188;SDS011;47054;39.716;2.904;2022-10-23T05:57:55;13.75;;;3.28;;
61188;SDS011;47054;39.716;2.904;2022-10-23T06:01:03;12.25;;;3.08;;
61188;SDS011;47054;39.716;2.904;2022-10-23T06:04:12;12.25;;;3.30;;
61188;SDS011;47054;39.716;2.904;2022-10-23T06:07:23;17.35;;;3.72;;
61188;SDS011;47054;39.716;2.904;2022-10-23T06:10:10;20.45;;;3.15;;
61188;SDS011;47054;39.716;2.904;2022-10-23T06:12:59;12.77;;;2.88;;
61188;SDS011;47054;39.716;2.904;2022-10-23T06:15:43;11.98;;;3.25;;
61188;SDS011;47054;39.716;2.904;2022-10-23T06:18:39;12.85;;;3.35;;
61188;SDS011;47054;39.716;2.904;2022-10-23T06:21:29;21.42;;;3.40;;
61188;SDS011;47054;39.716;2.904;2022-10-23T06:24:14;11.95;;;3.33;;
61188;SDS011;47054;39.716;2.904;2022-10-23T06:27:06;23.98;;;4.05;;
61188;SDS011;47054;39.716;2.904;2022-10-23T06:30:03;18.27;;;3.65;;
61188;SDS011;47054;39.716;2.904;2022-10-23T06:32:50;12.30;;;3.58;;
61188;SDS011;47054;39.716;2.904;2022-10-23T06:35:34;17.30;;;3.60;;
61188;SDS011;47054;39.716;2.904;2022-10-23T06:38:19;12.23;;;3.28;;
61188;SDS011;47054;39.716;2.904;2022-10-23T06:41:20;22.27;;;3.30;;
61188;SDS011;47054;39.716;2.904;2022-10-23T06:44:15;17.48;;;4.53;;
61188;SDS011;47054;39.716;2.904;2022-10-23T06:47:05;11.93;;;3.00;;
61188;SDS011;47054;39.716;2.904;2022-10-23T06:50:13;18.13;;;3.25;;
61188;SDS011;47054;39.716;2.904;2022-10-23T06:52:57;14.52;;;3.10;;
61188;SDS011;47054;39.716;2.904;2022-10-23T06:55:42;11.00;;;3.58;;
61188;SDS011;47054;39.716;2.904;2022-10-23T06:58:27;17.20;;;3.33;;
61188;SDS011;47054;39.716;2.904;2022-10-23T07:01:19;18.63;;;3.80;;
61188;SDS011;47054;39.716;2.904;2022-10-23T07:04:03;21.63;;;3.53;;
61188;SDS011;47054;39.716;2.904;2022-10-23T07:06:48;13.00;;;3.85;;
61188;SDS011;47054;39.716;2.904;2022-10-23T07:09:36;12.45;;;3.35;;
61188;SDS011;47054;39.716;2.904;2022-10-23T07:12:49;20.27;;;3.15;;
61188;SDS011;47054;39.716;2.904;2022-10-23T07:15:54;13.02;;;3.50;;
61188;SDS011;47054;39.716;2.904;2022-10-23T07:18:42;11.50;;;3.10;;
61188;SDS011;47054;39.716;2.904;2022-10-23T07:21:42;18.27;;;3.50;;
61188;SDS011;47054;39.716;2.904;2022-10-23T07:24:38;17.08;;;3.13;;
61188;SDS011;47054;39.716;2.904;2022-10-23T07:27:44;10.93;;;3.08;;
61188;SDS011;47054;39.716;2.904;2022-10-23T07:30:30;15.75;;;3.35;;
61188;SDS011;47054;39.716;2.904;2022-10-23T07:33:17;13.80;;;3.05;;
61188;SDS011;47054;39.716;2.904;2022-10-23T07:36:23;13.10;;;3.17;;
61188;SDS011;47054;39.716;2.904;2022-10-23T07:39:08;17.20;;;4.00;;
61188;SDS011;47054;39.716;2.904;2022-10-23T07:41:59;16.90;;;4.55;;
61188;SDS011;47054;39.716;2.904;2022-10-23T07:44:45;17.08;;;4.30;;
61188;SDS011;47054;39.716;2.904;2022-10-23T07:47:30;14.80;;;3.85;;
61188;SDS011;47054;39.716;2.904;2022-10-23T07:50:16;13.90;;;3.35;;
61188;SDS011;47054;39.716;2.904;2022-10-23T07:53:01;18.92;;;3.63;;
61188;SDS011;47054;39.716;2.904;2022-10-23T07:56:18;17.83;;;3.88;;
61188;SDS011;47054;39.716;2.904;2022-10-23T07:59:42;17.48;;;3.95;;
61188;SDS011;47054;39.716;2.904;2022-10-23T08:02:28;15.02;;;4.05;;
61188;SDS011;47054;39.716;2.904;2022-10-23T08:05:14;13.32;;;3.60;;
61188;SDS011;47054;39.716;2.904;2022-10-23T08:08:09;17.27;;;3.97;;
61188;SDS011;47054;39.716;2.904;2022-10-23T08:10:56;13.38;;;3.92;;
61188;SDS011;47054;39.716;2.904;2022-10-23T08:13:46;15.13;;;4.35;;
61188;SDS011;47054;39.716;2.904;2022-10-23T08:16:31;14.60;;;3.70;;
61188;SDS011;47054;39.716;2.904;2022-10-23T08:19:21;13.30;;;3.42;;
61188;SDS011;47054;39.716;2.904;2022-10-23T08:22:09;10.77;;;3.75;;
61188;SDS011;47054;39.716;2.904;2022-10-23T08:24:54;15.55;;;4.53;;
61188;SDS011;47054;39.716;2.904;2022-10-23T08:27:39;14.82;;;3.47;;
61188;SDS011;47054;39.716;2.904;2022-10-23T08:30:24;13.50;;;4.57;;
61188;SDS011;47054;39.716;2.904;2022-10-23T08:33:09;14.88;;;4.03;;
61188;SDS011;47054;39.716;2.904;2022-10-23T08:35:53;13.98;;;3.97;;
61188;SDS011;47054;39.716;2.904;2022-10-23T08:38:46;8.68;;;3.40;;
61188;SDS011;47054;39.716;2.904;2022-10-23T08:41:35;15.48;;;3.78;;
61188;SDS011;47054;39.716;2.904;2022-10-23T08:44:32;18.23;;;4.85;;
61188;SDS011;47054;39.716;2.904;2022-10-23T08:47:44;13.60;;;3.67;;
61188;SDS011;47054;39.716;2.904;2022-10-23T08:50:46;12.60;;;4.00;;
61188;SDS011;47054;39.716;2.904;2022-10-23T08:53:35;15.32;;;3.70;;
61188;SDS011;47054;39.716;2.904;2022-10-23T08:56:50;10.80;;;3.45;;
61188;SDS011;47054;39.716;2.904;2022-10-23T08:59:47;15.07;;;3.72;;
61188;SDS011;47054;39.716;2.904;2022-10-23T09:02:39;14.07;;;3.47;;
61188;SDS011;47054;39.716;2.904;2022-10-23T09:05:36;11.48;;;3.28;;
61188;SDS011;47054;39.716;2.904;2022-10-23T09:17:22;10.52;;;3.60;;
61188;SDS011;47054;39.716;2.904;2022-10-23T09:25:59;8.65;;;3.08;;
61188;SDS011;47054;39.716;2.904;2022-10-23T09:28:56;12.77;;;4.22;;
61188;SDS011;47054;39.716;2.904;2022-10-23T09:31:51;12.88;;;3.85;;
61188;SDS011;47054;39.716;2.904;2022-10-23T09:34:37;9.60;;;3.03;;
61188;SDS011;47054;39.716;2.904;2022-10-23T09:37:34;9.40;;;3.30;;
61188;SDS011;47054;39.716;2.904;2022-10-23T09:40:35;9.40;;;3.17;;
61188;SDS011;47054;39.716;2.904;2022-10-23T09:43:24;10.00;;;3.35;;
61188;SDS011;47054;39.716;2.904;2022-10-23T09:46:16;8.88;;;3.30;;
61188;SDS011;47054;39.716;2.904;2022-10-23T09:49:01;16.60;;;3.15;;
61188;SDS011;47054;39.716;2.904;2022-10-23T09:52:30;7.85;;;3.20;;
61188;SDS011;47054;39.716;2.904;2022-10-23T09:54:58;9.95;;;3.05;;
61188;SDS011;47054;39.716;2.904;2022-10-23T09:57:45;10.27;;;3.30;;
61188;SDS011;47054;39.716;2.904;2022-10-23T10:00:31;11.20;;;3.38;;
61188;SDS011;47054;39.716;2.904;2022-10-23T10:03:17;12.70;;;3.33;;
61188;SDS011;47054;39.716;2.904;2022-10-23T10:06:26;10.50;;;2.83;;
61188;SDS011;47054;39.716;2.904;2022-10-23T10:09:16;9.35;;;2.97;;
61188;SDS011;47054;39.716;2.904;2022-10-23T10:24:38;12.13;;;3.85;;
61188;SDS011;47054;39.716;2.904;2022-10-23T10:30:38;12.50;;;2.78;;
61188;SDS011;47054;39.716;2.904;2022-10-23T10:33:37;8.77;;;2.85;;
61188;SDS011;47054;39.716;2.904;2022-10-23T10:39:53;7.45;;;2.75;;
61188;SDS011;47054;39.716;2.904;2022-10-23T10:46:24;8.48;;;2.90;;
61188;SDS011;47054;39.716;2.904;2022-10-23T10:55:42;14.98;;;3.05;;
61188;SDS011;47054;39.716;2.904;2022-10-23T10:58:47;12.35;;;3.17;;
61188;SDS011;47054;39.716;2.904;2022-10-23T11:01:55;15.07;;;3.65;;
61188;SDS011;47054;39.716;2.904;2022-10-23T11:08:12;17.17;;;3.33;;
61188;SDS011;47054;39.716;2.904;2022-10-23T11:11:47;10.85;;;3.00;;
61188;SDS011;47054;39.716;2.904;2022-10-23T11:14:23;10.48;;;2.90;;
61188;SDS011;47054;39.716;2.904;2022-10-23T11:17:17;14.18;;;3.08;;
61188;SDS011;47054;39.716;2.904;2022-10-23T11:20:14;9.82;;;2.92;;
61188;SDS011;47054;39.716;2.904;2022-10-23T11:23:27;17.45;;;3.05;;
61188;SDS011;47054;39.716;2.904;2022-10-23T11:41:03;17.27;;;2.80;;
61188;SDS011;47054;39.716;2.904;2022-10-23T11:44:00;18.63;;;3.25;;
61188;SDS011;47054;39.716;2.904;2022-10-23T11:46:47;18.50;;;2.20;;
61188;SDS011;47054;39.716;2.904;2022-10-23T11:49:43;10.18;;;2.38;;
61188;SDS011;47054;39.716;2.904;2022-10-23T11:52:28;13.40;;;2.40;;
61188;SDS011;47054;39.716;2.904;2022-10-23T11:55:17;11.63;;;2.50;;
61188;SDS011;47054;39.716;2.904;2022-10-23T11:58:20;13.68;;;2.60;;
61188;SDS011;47054;39.716;2.904;2022-10-23T12:04:19;16.92;;;2.42;;
61188;SDS011;47054;39.716;2.904;2022-10-23T12:07:20;11.50;;;2.97;;
61188;SDS011;47054;39.716;2.904;2022-10-23T12:10:25;12.57;;;2.55;;
61188;SDS011;47054;39.716;2.904;2022-10-23T12:16:21;12.57;;;2.47;;
61188;SDS011;47054;39.716;2.904;2022-10-23T12:19:18;12.88;;;2.67;;
61188;SDS011;47054;39.716;2.904;2022-10-23T12:22:07;10.05;;;2.22;;
61188;SDS011;47054;39.716;2.904;2022-10-23T12:25:02;11.13;;;2.45;;
61188;SDS011;47054;39.716;2.904;2022-10-23T12:34:22;15.68;;;2.47;;
61188;SDS011;47054;39.716;2.904;2022-10-23T12:40:07;11.45;;;2.42;;
61188;SDS011;47054;39.716;2.904;2022-10-23T12:42:53;15.90;;;2.78;;
61188;SDS011;47054;39.716;2.904;2022-10-23T12:45:39;14.77;;;2.60;;
61188;SDS011;47054;39.716;2.904;2022-10-23T12:48:26;16.58;;;3.30;;
61188;SDS011;47054;39.716;2.904;2022-10-23T12:51:14;12.85;;;2.47;;
61188;SDS011;47054;39.716;2.904;2022-10-23T12:54:16;16.17;;;3.60;;
61188;SDS011;47054;39.716;2.904;2022-10-23T12:57:12;14.95;;;2.45;;
61188;SDS011;47054;39.716;2.904;2022-10-23T13:00:02;17.15;;;2.85;;
61188;SDS011;47054;39.716;2.904;2022-10-23T13:02:56;15.57;;;2.50;;
61188;SDS011;47054;39.716;2.904;2022-10-23T13:05:44;15.45;;;3.47;;
61188;SDS011;47054;39.716;2.904;2022-10-23T13:08:33;12.35;;;2.40;;
61188;SDS011;47054;39.716;2.904;2022-10-23T13:11:40;14.40;;;2.75;;
61188;SDS011;47054;39.716;2.904;2022-10-23T13:17:16;9.88;;;2.40;;
61188;SDS011;47054;39.716;2.904;2022-10-23T13:20:08;8.85;;;2.47;;
61188;SDS011;47054;39.716;2.904;2022-10-23T13:23:14;14.35;;;3.20;;
61188;SDS011;47054;39.716;2.904;2022-10-23T13:26:03;11.85;;;3.25;;
61188;SDS011;47054;39.716;2.904;2022-10-23T13:28:49;20.95;;;4.10;;
61188;SDS011;47054;39.716;2.904;2022-10-23T13:31:35;17.90;;;3.67;;
61188;SDS011;47054;39.716;2.904;2022-10-23T13:34:24;26.63;;;6.97;;
61188;SDS011;47054;39.716;2.904;2022-10-23T13:37:24;21.63;;;6.13;;
61188;SDS011;47054;39.716;2.904;2022-10-23T13:40:24;31.42;;;7.80;;
61188;SDS011;47054;39.716;2.904;2022-10-23T13:43:12;25.63;;;8.68;;
61188;SDS011;47054;39.716;2.904;2022-10-23T13:45:59;26.85;;;6.68;;
61188;SDS011;47054;39.716;2.904;2022-10-23T13:48:45;20.98;;;6.25;;
61188;SDS011;47054;39.716;2.904;2022-10-23T13:51:43;21.67;;;5.75;;
61188;SDS011;47054;39.716;2.904;2022-10-23T13:54:30;21.95;;;5.10;;
61188;SDS011;47054;39.716;2.904;2022-10-23T13:57:15;16.13;;;4.28;;
61188;SDS011;47054;39.716;2.904;2022-10-23T14:00:00;16.05;;;4.32;;
61188;SDS011;47054;39.716;2.904;2022-10-23T14:02:45;14.18;;;4.38;;
61188;SDS011;47054;39.716;2.904;2022-10-23T14:05:29;20.95;;;3.97;;
61188;SDS011;47054;39.716;2.904;2022-10-23T14:08:14;15.15;;;4.15;;
61188;SDS011;47054;39.716;2.904;2022-10-23T14:10:58;17.30;;;4.80;;
61188;SDS011;47054;39.716;2.904;2022-10-23T14:13:43;21.30;;;4.30;;
61188;SDS011;47054;39.716;2.904;2022-10-23T14:16:28;15.52;;;3.42;;
61188;SDS011;47054;39.716;2.904;2022-10-23T14:19:12;16.85;;;3.15;;
61188;SDS011;47054;39.716;2.904;2022-10-23T14:21:57;14.57;;;3.38;;
61188;SDS011;47054;39.716;2.904;2022-10-23T14:24:41;10.80;;;3.08;;
61188;SDS011;47054;39.716;2.904;2022-10-23T14:27:26;18.52;;;3.45;;
61188;SDS011;47054;39.716;2.904;2022-10-23T14:30:11;18.52;;;3.75;;
61188;SDS011;47054;39.716;2.904;2022-10-23T14:32:56;13.30;;;2.70;;
61188;SDS011;47054;39.716;2.904;2022-10-23T14:35:40;8.90;;;2.42;;
61188;SDS011;47054;39.716;2.904;2022-10-23T14:38:26;9.65;;;2.28;;
61188;SDS011;47054;39.716;2.904;2022-10-23T14:41:12;11.18;;;3.08;;
61188;SDS011;47054;39.716;2.904;2022-10-23T14:43:58;12.93;;;2.72;;
61188;SDS011;47054;39.716;2.904;2022-10-23T14:46:42;7.28;;;2.58;;
61188;SDS011;47054;39.716;2.904;2022-10-23T14:49:27;14.93;;;2.97;;
61188;SDS011;47054;39.716;2.904;2022-10-23T14:52:12;8.13;;;2.22;;
61188;SDS011;47054;39.716;2.904;2022-10-23T14:54:56;11.25;;;2.60;;
61188;SDS011;47054;39.716;2.904;2022-10-23T14:57:41;12.70;;;2.60;;
61188;SDS011;47054;39.716;2.904;2022-10-23T15:00:25;12.38;;;2.35;;
61188;SDS011;47054;39.716;2.904;2022-10-23T15:03:10;16.05;;;2.70;;
61188;SDS011;47054;39.716;2.904;2022-10-23T15:05:55;14.02;;;2.75;;
61188;SDS011;47054;39.716;2.904;2022-10-23T15:08:39;12.20;;;2.40;;
61188;SDS011;47054;39.716;2.904;2022-10-23T15:11:24;12.80;;;2.67;;
61188;SDS011;47054;39.716;2.904;2022-10-23T15:14:10;7.63;;;2.22;;
61188;SDS011;47054;39.716;2.904;2022-10-23T15:16:55;14.82;;;3.00;;
61188;SDS011;47054;39.716;2.904;2022-10-23T15:19:39;9.50;;;2.20;;
61188;SDS011;47054;39.716;2.904;2022-10-23T15:22:26;13.48;;;2.53;;
61188;SDS011;47054;39.716;2.904;2022-10-23T15:25:10;11.38;;;2.60;;
61188;SDS011;47054;39.716;2.904;2022-10-23T15:27:55;14.45;;;2.45;;
61188;SDS011;47054;39.716;2.904;2022-10-23T15:30:39;12.70;;;2.10;;
61188;SDS011;47054;39.716;2.904;2022-10-23T15:33:26;10.20;;;2.35;;
61188;SDS011;47054;39.716;2.904;2022-10-23T15:36:10;13.25;;;2.22;;
61188;SDS011;47054;39.716;2.904;2022-10-23T15:38:55;10.98;;;2.90;;
61188;SDS011;47054;39.716;2.904;2022-10-23T15:41:41;12.95;;;2.88;;
61188;SDS011;47054;39.716;2.904;2022-10-23T15:44:27;10.25;;;2.60;;
61188;SDS011;47054;39.716;2.904;2022-10-23T15:47:13;11.93;;;2.50;;
61188;SDS011;47054;39.716;2.904;2022-10-23T15:49:57;9.77;;;2.35;;
61188;SDS011;47054;39.716;2.904;2022-10-23T15:52:42;16.90;;;2.67;;
61188;SDS011;47054;39.716;2.904;2022-10-23T15:55:27;7.93;;;2.22;;
61188;SDS011;47054;39.716;2.904;2022-10-23T15:58:12;12.02;;;2.42;;
61188;SDS011;47054;39.716;2.904;2022-10-23T16:00:56;19.27;;;3.35;;
61188;SDS011;47054;39.716;2.904;2022-10-23T16:03:42;18.00;;;2.20;;
61188;SDS011;47054;39.716;2.904;2022-10-23T16:06:27;10.90;;;2.63;;
61188;SDS011;47054;39.716;2.904;2022-10-23T16:09:13;10.40;;;2.55;;
61188;SDS011;47054;39.716;2.904;2022-10-23T16:11:58;19.77;;;2.88;;
61188;SDS011;47054;39.716;2.904;2022-10-23T16:14:43;10.18;;;2.40;;
61188;SDS011;47054;39.716;2.904;2022-10-23T16:17:28;16.20;;;2.85;;
61188;SDS011;47054;39.716;2.904;2022-10-23T16:20:12;7.55;;;2.33;;
61188;SDS011;47054;39.716;2.904;2022-10-23T16:22:58;12.27;;;2.60;;
61188;SDS011;47054;39.716;2.904;2022-10-23T16:25:42;14.48;;;2.97;;
61188;SDS011;47054;39.716;2.904;2022-10-23T16:28:27;8.80;;;2.58;;
61188;SDS011;47054;39.716;2.904;2022-10-23T16:31:16;9.55;;;2.17;;
61188;SDS011;47054;39.716;2.904;2022-10-23T16:34:03;10.43;;;2.45;;
61188;SDS011;47054;39.716;2.904;2022-10-23T16:36:48;11.40;;;2.20;;
61188;SDS011;47054;39.716;2.904;2022-10-23T16:39:41;16.15;;;2.72;;
61188;SDS011;47054;39.716;2.904;2022-10-23T16:42:46;8.27;;;2.10;;
61188;SDS011;47054;39.716;2.904;2022-10-23T16:45:45;15.35;;;2.50;;
61188;SDS011;47054;39.716;2.904;2022-10-23T16:48:30;10.38;;;2.30;;
61188;SDS011;47054;39.716;2.904;2022-10-23T16:51:19;10.80;;;2.47;;
61188;SDS011;47054;39.716;2.904;2022-10-23T16:54:05;15.00;;;2.55;;
61188;SDS011;47054;39.716;2.904;2022-10-23T16:56:49;10.13;;;2.50;;
61188;SDS011;47054;39.716;2.904;2022-10-23T16:59:34;15.38;;;2.40;;
61188;SDS011;47054;39.716;2.904;2022-10-23T17:02:18;9.02;;;2.00;;
61188;SDS011;47054;39.716;2.904;2022-10-23T17:05:03;10.85;;;2.20;;
61188;SDS011;47054;39.716;2.904;2022-10-23T17:07:51;10.20;;;2.55;;
61188;SDS011;47054;39.716;2.904;2022-10-23T17:10:35;10.27;;;2.17;;
61188;SDS011;47054;39.716;2.904;2022-10-23T17:13:20;13.90;;;2.55;;
61188;SDS011;47054;39.716;2.904;2022-10-23T17:16:05;11.68;;;2.50;;
61188;SDS011;47054;39.716;2.904;2022-10-23T17:18:55;14.52;;;2.83;;
61188;SDS011;47054;39.716;2.904;2022-10-23T17:21:41;11.25;;;2.40;;
61188;SDS011;47054;39.716;2.904;2022-10-23T17:24:25;12.90;;;3.03;;
61188;SDS011;47054;39.716;2.904;2022-10-23T17:27:10;13.40;;;2.40;;
61188;SDS011;47054;39.716;2.904;2022-10-23T17:29:55;8.13;;;2.40;;
61188;SDS011;47054;39.716;2.904;2022-10-23T17:32:41;9.88;;;2.60;;
61188;SDS011;47054;39.716;2.904;2022-10-23T17:35:25;13.68;;;2.63;;
61188;SDS011;47054;39.716;2.904;2022-10-23T17:38:10;19.23;;;3.15;;
61188;SDS011;47054;39.716;2.904;2022-10-23T17:41:01;9.55;;;2.53;;
61188;SDS011;47054;39.716;2.904;2022-10-23T17:43:46;12.93;;;2.92;;
61188;SDS011;47054;39.716;2.904;2022-10-23T17:46:31;11.70;;;2.40;;
61188;SDS011;47054;39.716;2.904;2022-10-23T17:49:16;11.65;;;2.70;;
61188;SDS011;47054;39.716;2.904;2022-10-23T17:52:00;14.35;;;2.80;;
61188;SDS011;47054;39.716;2.904;2022-10-23T17:54:49;9.23;;;2.42;;
61188;SDS011;47054;39.716;2.904;2022-10-23T17:57:34;12.95;;;2.85;;
61188;SDS011;47054;39.716;2.904;2022-10-23T18:00:19;8.95;;;2.72;;
61188;SDS011;47054;39.716;2.904;2022-10-23T18:03:03;11.43;;;2.85;;
61188;SDS011;47054;39.716;2.904;2022-10-23T18:05:48;16.88;;;3.20;;
61188;SDS011;47054;39.716;2.904;2022-10-23T18:08:33;11.18;;;3.35;;
61188;SDS011;47054;39.716;2.904;2022-10-23T18:11:23;10.43;;;3.13;;
61188;SDS011;47054;39.716;2.904;2022-10-23T18:14:10;13.57;;;3.60;;
61188;SDS011;47054;39.716;2.904;2022-10-23T18:16:56;16.70;;;4.07;;
61188;SDS011;47054;39.716;2.904;2022-10-23T18:19:40;18.10;;;3.80;;
61188;SDS011;47054;39.716;2.904;2022-10-23T18:22:25;12.05;;;3.63;;
61188;SDS011;47054;39.716;2.904;2022-10-23T18:25:09;16.65;;;3.67;;
61188;SDS011;47054;39.716;2.904;2022-10-23T18:27:54;11.60;;;3.83;;
61188;SDS011;47054;39.716;2.904;2022-10-23T18:30:38;12.18;;;3.75;;
61188;SDS011;47054;39.716;2.904;2022-10-23T18:33:23;18.23;;;3.70;;
61188;SDS011;47054;39.716;2.904;2022-10-23T18:36:19;15.48;;;3.92;;
61188;SDS011;47054;39.716;2.904;2022-10-23T18:39:10;14.18;;;4.28;;
61188;SDS011;47054;39.716;2.904;2022-10-23T18:41:58;14.02;;;3.95;;
61188;SDS011;47054;39.716;2.904;2022-10-23T18:44:42;13.45;;;3.42;;
61188;SDS011;47054;39.716;2.904;2022-10-23T18:47:33;14.57;;;3.35;;